createdAt,value
2018-12-09T00:00:52.743Z,98103.71
2018-12-09T00:01:55.303Z,98106.80
2018-12-09T00:02:57.075Z,98103.71
2018-12-09T00:03:58.841Z,98105.02
2018-12-09T00:05:00.600Z,98099.81
2018-12-09T00:06:02.353Z,98098.11
2018-12-09T00:07:04.107Z,98101.11
2018-12-09T00:08:05.881Z,98103.71
2018-12-09T00:09:07.651Z,98092.92
2018-12-09T00:11:17.619Z,98099.01
2018-12-09T00:12:19.367Z,98100.89
2018-12-09T00:13:21.168Z,98095.20
2018-12-09T00:14:23.144Z,98097.92
2018-12-09T00:15:25.145Z,98100.12
2018-12-09T00:16:26.891Z,98095.81
2018-12-09T00:17:28.671Z,98094.02
2018-12-09T00:18:30.491Z,98100.52
2018-12-09T00:19:32.269Z,98095.41
2018-12-09T00:20:34.025Z,98095.01
2018-12-09T00:21:35.795Z,98092.41
2018-12-09T00:22:37.568Z,98094.61
2018-12-09T00:23:39.338Z,98089.09
2018-12-09T00:24:41.101Z,98089.59
2018-12-09T00:25:42.849Z,98087.39
2018-12-09T00:26:44.604Z,98080.09
2018-12-09T00:27:46.351Z,98072.78
2018-12-09T00:28:48.119Z,98073.28
2018-12-09T00:29:49.873Z,98079.45
2018-12-09T00:30:51.627Z,98068.16
2018-12-09T00:31:53.415Z,98078.24
2018-12-09T00:32:56.234Z,98070.45
2018-12-09T00:33:58.015Z,98067.45
2018-12-09T00:34:59.784Z,98074.34
2018-12-09T00:36:01.564Z,98069.27
2018-12-09T00:37:03.313Z,98067.56
2018-12-09T00:38:05.150Z,98068.95
2018-12-09T00:39:06.924Z,98065.05
2018-12-09T00:40:08.699Z,98068.95
2018-12-09T00:41:10.469Z,98065.46
2018-12-09T00:42:12.240Z,98061.56
2018-12-09T00:43:13.976Z,98057.26
2018-12-09T00:44:15.765Z,98057.26
2018-12-09T00:45:17.537Z,98055.96
2018-12-09T00:46:19.288Z,98057.66
2018-12-09T00:47:21.285Z,98049.87
2018-12-09T00:48:23.110Z,98061.56
2018-12-09T00:49:25.066Z,98061.07
2018-12-09T00:50:26.843Z,98061.07
2018-12-09T00:51:28.603Z,98056.36
2018-12-09T00:52:30.376Z,98058.07
2018-12-09T00:53:32.142Z,98051.08
2018-12-09T00:54:33.895Z,98056.28
2018-12-09T00:55:35.644Z,98055.88
2018-12-09T00:56:37.398Z,98048.08
2018-12-09T00:57:39.160Z,98057.45
2018-12-09T00:58:40.917Z,98060.05
2018-12-09T00:59:42.705Z,98050.06
2018-12-09T01:00:44.454Z,98054.86
2018-12-09T01:01:46.196Z,98048.77
2018-12-09T01:02:47.958Z,98050.47
2018-12-09T01:03:49.713Z,98045.68
2018-12-09T01:04:51.492Z,98052.66
2018-12-09T01:05:53.277Z,98046.58
2018-12-09T01:06:55.025Z,98043.08
2018-12-09T01:07:56.787Z,98050.87
2018-12-09T01:08:58.556Z,98041.78
2018-12-09T01:10:00.345Z,98048.28
2018-12-09T01:11:02.103Z,98051.28
2018-12-09T01:12:03.850Z,98048.19
2018-12-09T01:13:05.601Z,98049.09
2018-12-09T01:14:07.362Z,98056.48
2018-12-09T01:15:09.126Z,98047.38
2018-12-09T01:16:10.877Z,98062.97
2018-12-09T01:17:12.720Z,98056.56
2018-12-09T01:18:14.464Z,98061.76
2018-12-09T01:19:16.210Z,98060.86
2018-12-09T01:20:17.985Z,98067.77
2018-12-09T01:21:19.738Z,98061.67
2018-12-09T01:22:21.495Z,98060.38
2018-12-09T01:23:23.246Z,98058.27
2018-12-09T01:24:25.327Z,98057.37
2018-12-09T01:25:27.121Z,98057.28
2018-12-09T01:26:28.868Z,98057.78
2018-12-09T01:27:31.704Z,98049.09
2018-12-09T01:28:33.506Z,98058.18
2018-12-09T01:29:35.326Z,98062.97
2018-12-09T01:30:37.516Z,98060.78
2018-12-09T01:31:39.269Z,98065.48
2018-12-09T01:32:41.116Z,98059.88
2018-12-09T01:33:42.871Z,98061.19
2018-12-09T01:34:44.616Z,98061.59
2018-12-09T01:35:46.393Z,98064.19
2018-12-09T01:36:48.150Z,98052.90
2018-12-09T01:37:50.477Z,98061.98
2018-12-09T01:38:52.254Z,98049.49
2018-12-09T01:39:54.009Z,98049.00
2018-12-09T01:40:56.141Z,98048.11
2018-12-09T01:41:57.911Z,98046.80
2018-12-09T01:42:59.681Z,98047.20
2018-12-09T01:44:01.433Z,98047.20
2018-12-09T01:45:03.601Z,98048.91
2018-12-09T01:46:05.378Z,98044.20
2018-12-09T01:47:07.246Z,98042.82
2018-12-09T01:48:09.015Z,98041.52
2018-12-09T01:49:10.776Z,98045.91
2018-12-09T01:50:13.179Z,98043.72
2018-12-09T01:51:14.961Z,98042.91
2018-12-09T01:52:16.737Z,98043.31
2018-12-09T01:53:18.488Z,98044.61
2018-12-09T01:54:20.611Z,98044.20
2018-12-09T01:55:22.365Z,98048.51
2018-12-09T01:56:24.558Z,98045.51
2018-12-09T01:57:27.330Z,98048.91
2018-12-09T01:58:29.081Z,98048.11
2018-12-09T01:59:31.148Z,98043.72
2018-12-09T02:00:32.918Z,98052.81
2018-12-09T02:01:34.700Z,98053.21
2018-12-09T02:02:36.469Z,98050.62
2018-12-09T02:03:38.218Z,98046.31
2018-12-09T02:04:40.799Z,98048.11
2018-12-09T02:05:43.628Z,98052.41
2018-12-09T02:06:45.403Z,98054.92
2018-12-09T02:07:47.169Z,98054.52
2018-12-09T02:08:48.934Z,98051.91
2018-12-09T02:09:50.701Z,98050.21
2018-12-09T02:10:52.470Z,98051.11
2018-12-09T02:11:54.275Z,98053.30
2018-12-09T02:12:57.034Z,98052.49
2018-12-09T02:13:59.021Z,98046.31
2018-12-09T02:15:00.779Z,98045.83
2018-12-09T02:16:02.536Z,98047.61
2018-12-09T02:17:04.470Z,98047.61
2018-12-09T02:18:06.226Z,98045.02
2018-12-09T02:19:08.526Z,98046.31
2018-12-09T02:20:10.295Z,98045.42
2018-12-09T02:21:12.051Z,98042.82
2018-12-09T02:22:13.829Z,98039.82
2018-12-09T02:23:15.569Z,98038.12
2018-12-09T02:24:17.353Z,98037.14
2018-12-09T02:25:19.113Z,98035.34
2018-12-09T02:26:20.878Z,98038.03
2018-12-09T02:27:23.187Z,98041.92
2018-12-09T02:28:24.943Z,98040.22
2018-12-09T02:29:26.717Z,98039.73
2018-12-09T02:30:28.500Z,98041.52
2018-12-09T02:31:31.292Z,98038.44
2018-12-09T02:32:33.070Z,98037.95
2018-12-09T02:33:34.822Z,98045.83
2018-12-09T02:34:36.603Z,98049.31
2018-12-09T02:35:38.381Z,98048.83
2018-12-09T02:36:40.136Z,98046.72
2018-12-09T02:37:41.953Z,98047.61
2018-12-09T02:38:43.706Z,98051.91
2018-12-09T02:39:45.464Z,98055.72
2018-12-09T02:40:47.226Z,98062.63
2018-12-09T02:41:49.405Z,98061.81
2018-12-09T02:42:51.176Z,98058.33
2018-12-09T02:43:52.934Z,98055.72
2018-12-09T02:44:54.694Z,98051.83
2018-12-09T02:45:56.481Z,98049.63
2018-12-09T02:46:58.240Z,98051.83
2018-12-09T02:48:00.010Z,98047.44
2018-12-09T02:49:01.782Z,98051.73
2018-12-09T02:50:03.654Z,98043.55
2018-12-09T02:51:05.401Z,98048.33
2018-12-09T02:52:07.138Z,98043.14
2018-12-09T02:53:08.917Z,98046.55
2018-12-09T02:54:10.736Z,98048.66
2018-12-09T02:55:12.827Z,98044.35
2018-12-09T02:56:14.584Z,98044.75
2018-12-09T02:57:16.377Z,98041.35
2018-12-09T02:58:18.171Z,98048.73
2018-12-09T02:59:19.932Z,98049.55
2018-12-09T03:00:21.698Z,98049.14
2018-12-09T03:01:23.447Z,98046.55
2018-12-09T03:02:25.196Z,98049.63
2018-12-09T03:03:26.990Z,98044.84
2018-12-09T03:04:28.745Z,98047.36
2018-12-09T03:05:30.510Z,98045.25
2018-12-09T03:06:32.257Z,98048.73
2018-12-09T03:07:34.021Z,98046.14
2018-12-09T03:08:35.928Z,98050.44
2018-12-09T03:09:38.219Z,98052.14
2018-12-09T03:10:40.002Z,98053.45
2018-12-09T03:11:41.765Z,98052.55
2018-12-09T03:12:43.517Z,98059.53
2018-12-09T03:13:45.298Z,98053.84
2018-12-09T03:14:47.048Z,98056.94
2018-12-09T03:15:48.809Z,98050.94
2018-12-09T03:16:50.556Z,98050.84
2018-12-09T03:17:52.407Z,98046.05
2018-12-09T03:18:54.200Z,98043.95
2018-12-09T03:19:55.967Z,98040.45
2018-12-09T03:20:57.778Z,98048.25
2018-12-09T03:22:00.981Z,98049.95
2018-12-09T03:23:03.241Z,98047.36
2018-12-09T03:24:05.033Z,98043.05
2018-12-09T03:25:06.949Z,98047.84
2018-12-09T03:26:08.690Z,98042.25
2018-12-09T03:27:10.453Z,98042.65
2018-12-09T03:28:12.224Z,98038.27
2018-12-09T03:29:14.018Z,98044.75
2018-12-09T03:30:15.873Z,98051.25
2018-12-09T03:31:17.622Z,98043.95
2018-12-09T03:32:19.385Z,98050.44
2018-12-09T03:33:21.341Z,98048.73
2018-12-09T03:34:23.228Z,98045.65
2018-12-09T03:35:24.984Z,98054.74
2018-12-09T03:36:27.151Z,98050.35
2018-12-09T03:37:29.017Z,98053.45
2018-12-09T03:38:30.891Z,98053.45
2018-12-09T03:39:32.701Z,98050.35
2018-12-09T03:40:34.674Z,98053.04
2018-12-09T03:41:36.423Z,98048.25
2018-12-09T03:42:38.203Z,98052.14
2018-12-09T03:43:39.958Z,98049.55
2018-12-09T03:44:41.769Z,98054.74
2018-12-09T03:45:43.709Z,98056.53
2018-12-09T03:46:45.682Z,98049.55
2018-12-09T03:47:47.438Z,98056.53
2018-12-09T03:48:49.200Z,98054.34
2018-12-09T03:49:51.421Z,98054.34
2018-12-09T03:50:53.178Z,98050.35
2018-12-09T03:51:54.943Z,98053.04
2018-12-09T03:52:56.696Z,98059.53
2018-12-09T03:53:58.493Z,98062.53
2018-12-09T03:55:00.290Z,98056.05
2018-12-09T03:56:02.049Z,98059.94
2018-12-09T03:57:03.812Z,98059.05
2018-12-09T03:58:05.601Z,98059.53
2018-12-09T03:59:07.357Z,98064.64
2018-12-09T04:00:09.124Z,98061.23
2018-12-09T04:01:10.962Z,98062.94
2018-12-09T04:02:13.028Z,98057.34
2018-12-09T04:03:14.794Z,98055.95
2018-12-09T04:04:16.585Z,98063.34
2018-12-09T04:05:18.366Z,98063.84
2018-12-09T04:06:20.150Z,98063.84
2018-12-09T04:07:21.909Z,98061.23
2018-12-09T04:08:23.664Z,98062.53
2018-12-09T04:09:25.418Z,98063.34
2018-12-09T04:10:27.178Z,98068.54
2018-12-09T04:11:28.939Z,98066.34
2018-12-09T04:12:30.692Z,98067.33
2018-12-09T04:13:32.453Z,98068.54
2018-12-09T04:14:34.211Z,98069.92
2018-12-09T04:15:42.066Z,98062.13
2018-12-09T04:16:44.465Z,98068.62
2018-12-09T04:17:46.239Z,98069.92
2018-12-09T04:18:48.031Z,98069.44
2018-12-09T04:19:49.782Z,98069.03
2018-12-09T04:20:51.547Z,98069.44
2018-12-09T04:21:53.651Z,98066.03
2018-12-09T04:22:55.409Z,98064.73
2018-12-09T04:23:57.183Z,98064.64
2018-12-09T04:24:58.942Z,98060.75
2018-12-09T04:26:03.200Z,98071.63
2018-12-09T04:27:04.944Z,98069.03
2018-12-09T04:28:06.689Z,98066.84
2018-12-09T04:29:08.446Z,98073.33
2018-12-09T04:30:10.532Z,98072.92
2018-12-09T04:31:12.515Z,98081.13
2018-12-09T04:32:14.282Z,98074.63
2018-12-09T04:33:16.051Z,98082.42
2018-12-09T04:34:18.312Z,98082.02
2018-12-09T04:35:20.078Z,98085.11
2018-12-09T04:36:21.891Z,98080.72
2018-12-09T04:37:23.849Z,98088.52
2018-12-09T04:38:26.302Z,98090.30
2018-12-09T04:39:28.052Z,98086.81
2018-12-09T04:40:30.389Z,98092.41
2018-12-09T04:41:32.178Z,98093.71
2018-12-09T04:42:33.949Z,98089.32
2018-12-09T04:43:35.705Z,98094.52
2018-12-09T04:44:37.866Z,98097.11
2018-12-09T04:45:39.608Z,98096.70
2018-12-09T04:46:41.412Z,98096.70
2018-12-09T04:47:43.168Z,98098.81
2018-12-09T04:48:44.920Z,98094.52
2018-12-09T04:49:46.684Z,98098.41
2018-12-09T04:50:48.593Z,98099.71
2018-12-09T04:51:50.381Z,98092.33
2018-12-09T04:52:52.818Z,98101.50
2018-12-09T04:53:54.617Z,98095.81
2018-12-09T04:54:56.377Z,98100.61
2018-12-09T04:55:58.146Z,98105.40
2018-12-09T04:57:00.038Z,98105.40
2018-12-09T04:58:02.294Z,98099.80
2018-12-09T04:59:04.174Z,98093.71
2018-12-09T05:00:05.942Z,98095.01
2018-12-09T05:01:07.712Z,98104.91
2018-12-09T05:02:09.504Z,98106.70
2018-12-09T05:03:11.291Z,98114.89
2018-12-09T05:04:13.046Z,98114.49
2018-12-09T05:05:14.808Z,98113.59
2018-12-09T05:06:16.567Z,98117.58
2018-12-09T05:07:18.341Z,98118.79
2018-12-09T05:08:20.101Z,98116.59
2018-12-09T05:09:21.891Z,98123.98
2018-12-09T05:10:24.178Z,98125.78
2018-12-09T05:11:25.953Z,98123.98
2018-12-09T05:12:27.725Z,98123.98
2018-12-09T05:13:29.496Z,98124.39
2018-12-09T05:14:31.231Z,98121.39
2018-12-09T05:15:32.999Z,98124.88
2018-12-09T05:16:35.510Z,98122.69
2018-12-09T05:17:37.348Z,98127.88
2018-12-09T05:18:39.099Z,98125.28
2018-12-09T05:19:40.869Z,98128.78
2018-12-09T05:20:42.615Z,98128.69
2018-12-09T05:21:44.391Z,98128.78
2018-12-09T05:22:46.161Z,98127.88
2018-12-09T05:23:48.441Z,98128.69
2018-12-09T05:24:50.197Z,98135.27
2018-12-09T05:25:51.949Z,98130.88
2018-12-09T05:26:53.715Z,98133.08
2018-12-09T05:27:55.483Z,98133.48
2018-12-09T05:28:57.241Z,98136.08
2018-12-09T05:29:59.025Z,98143.88
2018-12-09T05:31:00.773Z,98135.59
2018-12-09T05:32:02.532Z,98139.08
2018-12-09T05:33:04.353Z,98140.87
2018-12-09T05:34:06.135Z,98140.47
2018-12-09T05:35:07.913Z,98137.47
2018-12-09T05:36:10.093Z,98143.06
2018-12-09T05:37:11.854Z,98141.27
2018-12-09T05:38:13.657Z,98142.98
2018-12-09T05:39:15.433Z,98143.88
2018-12-09T05:40:17.197Z,98144.77
2018-12-09T05:41:18.950Z,98144.37
2018-12-09T05:42:20.715Z,98150.05
2018-12-09T05:43:22.511Z,98144.37
2018-12-09T05:44:24.726Z,98145.66
2018-12-09T05:45:26.493Z,98158.25
2018-12-09T05:46:28.253Z,98144.27
2018-12-09T05:47:30.013Z,98149.56
2018-12-09T05:48:31.783Z,98150.86
2018-12-09T05:49:33.970Z,98155.16
2018-12-09T05:50:35.747Z,98153.86
2018-12-09T05:51:37.523Z,98156.86
2018-12-09T05:52:39.386Z,98164.66
2018-12-09T05:53:41.191Z,98162.46
2018-12-09T05:54:42.941Z,98169.45
2018-12-09T05:55:44.695Z,98174.24
2018-12-09T05:56:46.757Z,98173.34
2018-12-09T05:57:48.514Z,98181.54
2018-12-09T05:58:50.282Z,98183.73
2018-12-09T05:59:52.053Z,98181.14
2018-12-09T06:00:54.019Z,98180.64
2018-12-09T06:01:56.296Z,98180.64
2018-12-09T06:02:58.053Z,98181.94
2018-12-09T06:04:00.216Z,98180.23
2018-12-09T06:05:01.963Z,98172.45
2018-12-09T06:06:03.703Z,98167.25
2018-12-09T06:07:05.456Z,98172.32
2018-12-09T06:08:07.409Z,98170.25
2018-12-09T06:09:09.202Z,98178.45
2018-12-09T06:10:10.963Z,98179.34
2018-12-09T06:11:12.727Z,98175.05
2018-12-09T06:12:14.760Z,98174.15
2018-12-09T06:13:16.504Z,98178.05
2018-12-09T06:14:18.282Z,98175.94
2018-12-09T06:15:20.551Z,98171.02
2018-12-09T06:16:22.309Z,98177.16
2018-12-09T06:17:24.054Z,98175.85
2018-12-09T06:18:25.808Z,98182.72
2018-12-09T06:19:27.596Z,98182.34
2018-12-09T06:20:29.364Z,98184.02
2018-12-09T06:21:31.135Z,98177.52
2018-12-09T06:22:32.875Z,98182.72
2018-12-09T06:23:34.636Z,98190.14
2018-12-09T06:24:36.429Z,98191.93
2018-12-09T06:25:38.202Z,98203.13
2018-12-09T06:26:39.952Z,98190.63
2018-12-09T06:27:42.083Z,98198.92
2018-12-09T06:28:43.844Z,98192.83
2018-12-09T06:29:45.626Z,98194.63
2018-12-09T06:30:47.383Z,98198.61
2018-12-09T06:31:49.158Z,98201.11
2018-12-09T06:32:50.921Z,98200.22
2018-12-09T06:33:52.780Z,98202.91
2018-12-09T06:34:54.578Z,98204.61
2018-12-09T06:35:56.332Z,98205.91
2018-12-09T06:36:58.115Z,98203.31
2018-12-09T06:37:59.894Z,98207.70
2018-12-09T06:39:01.663Z,98211.59
2018-12-09T06:40:03.884Z,98213.39
2018-12-09T06:41:05.689Z,98211.59
2018-12-09T06:42:07.512Z,98210.70
2018-12-09T06:43:09.372Z,98215.00
2018-12-09T06:44:11.261Z,98219.88
2018-12-09T06:45:14.948Z,98218.59
2018-12-09T06:46:16.830Z,98217.69
2018-12-09T06:47:18.784Z,98222.57
2018-12-09T06:48:20.544Z,98226.88
2018-12-09T06:49:22.296Z,98223.38
2018-12-09T06:50:24.244Z,98220.78
2018-12-09T06:51:26.031Z,98226.56
2018-12-09T06:52:27.780Z,98227.45
2018-12-09T06:53:30.040Z,98229.16
2018-12-09T06:54:31.801Z,98229.66
2018-12-09T06:55:33.662Z,98233.95
2018-12-09T06:56:35.549Z,98238.34
2018-12-09T06:57:37.298Z,98233.05
2018-12-09T06:58:39.039Z,98237.36
2018-12-09T06:59:40.798Z,98243.54
2018-12-09T07:00:42.963Z,98241.75
2018-12-09T07:01:44.838Z,98247.93
2018-12-09T07:02:46.600Z,98248.73
2018-12-09T07:03:49.475Z,98253.93
2018-12-09T07:04:51.248Z,98246.54
2018-12-09T07:05:53.616Z,98246.94
2018-12-09T07:06:55.384Z,98254.33
2018-12-09T07:07:57.140Z,98256.94
2018-12-09T07:08:58.914Z,98259.12
2018-12-09T07:10:00.877Z,98256.84
2018-12-09T07:11:02.846Z,98262.94
2018-12-09T07:12:04.592Z,98267.23
2018-12-09T07:13:06.589Z,98263.83
2018-12-09T07:14:08.495Z,98267.73
2018-12-09T07:15:10.280Z,98269.52
2018-12-09T07:16:12.307Z,98277.22
2018-12-09T07:17:14.291Z,98276.82
2018-12-09T07:18:16.470Z,98275.12
2018-12-09T07:19:18.226Z,98283.72
2018-12-09T07:20:19.996Z,98279.82
2018-12-09T07:21:21.774Z,98288.91
2018-12-09T07:22:23.522Z,98289.81
2018-12-09T07:23:25.286Z,98287.52
2018-12-09T07:24:27.584Z,98291.83
2018-12-09T07:25:29.333Z,98289.72
2018-12-09T07:26:31.103Z,98300.11
2018-12-09T07:27:33.780Z,98297.02
2018-12-09T07:28:35.544Z,98299.22
2018-12-09T07:29:37.281Z,98297.91
2018-12-09T07:30:40.591Z,98301.01
2018-12-09T07:31:42.372Z,98305.31
2018-12-09T07:32:44.127Z,98305.71
2018-12-09T07:33:45.887Z,98309.20
2018-12-09T07:34:47.653Z,98313.91
2018-12-09T07:35:49.425Z,98310.01
2018-12-09T07:36:51.360Z,98313.01
2018-12-09T07:37:53.158Z,98320.80
2018-12-09T07:38:54.944Z,98316.91
2018-12-09T07:39:56.701Z,98317.80
2018-12-09T07:40:58.704Z,98319.10
2018-12-09T07:42:00.585Z,98323.00
2018-12-09T07:43:02.690Z,98328.59
2018-12-09T07:44:04.869Z,98332.98
2018-12-09T07:45:06.657Z,98337.28
2018-12-09T07:46:08.441Z,98336.39
2018-12-09T07:47:10.222Z,98336.39
2018-12-09T07:48:12.001Z,98339.39
2018-12-09T07:49:13.758Z,98336.80
2018-12-09T07:50:15.511Z,98340.28
2018-12-09T07:51:17.293Z,98337.28
2018-12-09T07:52:19.115Z,98340.28
2018-12-09T07:53:20.949Z,98341.59
2018-12-09T07:54:22.759Z,98346.78
2018-12-09T07:55:24.532Z,98347.68
2018-12-09T07:56:26.286Z,98347.68
2018-12-09T07:57:28.051Z,98348.48
2018-12-09T07:58:29.826Z,98345.48
2018-12-09T07:59:31.582Z,98345.89
2018-12-09T08:00:33.346Z,98351.08
2018-12-09T08:01:35.106Z,98350.68
2018-12-09T08:02:36.877Z,98352.47
2018-12-09T08:03:38.629Z,98355.88
2018-12-09T08:04:40.377Z,98355.88
2018-12-09T08:05:42.127Z,98367.16
2018-12-09T08:06:43.872Z,98369.36
2018-12-09T08:07:45.654Z,98371.06
2018-12-09T08:08:47.417Z,98371.96
2018-12-09T08:09:49.181Z,98379.76
2018-12-09T08:10:50.938Z,98379.76
2018-12-09T08:11:52.681Z,98380.66
2018-12-09T08:12:54.463Z,98382.26
2018-12-09T08:13:56.247Z,98385.35
2018-12-09T08:14:58.095Z,98385.75
2018-12-09T08:15:59.974Z,98388.35
2018-12-09T08:17:01.739Z,98389.25
2018-12-09T08:18:03.537Z,98388.75
2018-12-09T08:19:05.313Z,98388.35
2018-12-09T08:20:07.066Z,98389.66
2018-12-09T08:21:09.218Z,98392.25
2018-12-09T08:22:11.208Z,98394.84
2018-12-09T08:23:12.986Z,98392.65
2018-12-09T08:24:14.746Z,98396.95
2018-12-09T08:25:16.491Z,98392.65
2018-12-09T08:26:18.249Z,98391.75
2018-12-09T08:27:20.415Z,98399.05
2018-12-09T08:28:23.421Z,98396.95
2018-12-09T08:29:25.181Z,98389.56
2018-12-09T08:30:26.947Z,98391.66
2018-12-09T08:31:28.721Z,98391.66
2018-12-09T08:32:30.496Z,98397.35
2018-12-09T08:33:32.273Z,98397.75
2018-12-09T08:34:34.022Z,98396.36
2018-12-09T08:35:35.804Z,98402.45
2018-12-09T08:36:37.555Z,98403.84
2018-12-09T08:37:39.299Z,98408.23
2018-12-09T08:38:41.339Z,98406.45
2018-12-09T08:39:43.111Z,98410.34
2018-12-09T08:40:44.863Z,98412.05
2018-12-09T08:41:46.625Z,98419.44
2018-12-09T08:42:48.381Z,98421.13
2018-12-09T08:43:50.152Z,98416.84
2018-12-09T08:44:51.917Z,98421.63
2018-12-09T08:45:53.678Z,98423.73
2018-12-09T08:46:55.447Z,98423.73
2018-12-09T08:47:57.220Z,98418.94
2018-12-09T08:48:59.003Z,98425.34
2018-12-09T08:50:00.743Z,98426.23
2018-12-09T08:51:02.502Z,98426.23
2018-12-09T08:52:04.263Z,98427.03
2018-12-09T08:53:06.025Z,98427.13
2018-12-09T08:54:07.781Z,98427.53
2018-12-09T08:55:09.560Z,98426.23
2018-12-09T08:56:11.330Z,98434.03
2018-12-09T08:57:13.091Z,98427.53
2018-12-09T08:58:14.847Z,98433.13
2018-12-09T08:59:16.629Z,98439.72
2018-12-09T09:00:18.402Z,98440.62
2018-12-09T09:01:20.148Z,98442.72
2018-12-09T09:02:22.306Z,98440.13
2018-12-09T09:03:24.129Z,98442.81
2018-12-09T09:04:25.971Z,98448.91
2018-12-09T09:05:27.721Z,98450.61
2018-12-09T09:06:29.480Z,98447.11
2018-12-09T09:07:31.231Z,98451.91
2018-12-09T09:08:32.997Z,98453.20
2018-12-09T09:09:34.752Z,98455.00
2018-12-09T09:10:36.499Z,98458.50
2018-12-09T09:11:38.273Z,98452.81
2018-12-09T09:12:40.049Z,98452.41
2018-12-09T09:13:41.796Z,98447.21
2018-12-09T09:14:43.593Z,98452.41
2018-12-09T09:15:45.355Z,98453.70
2018-12-09T09:16:47.108Z,98461.50
2018-12-09T09:17:48.862Z,98455.41
2018-12-09T09:18:50.605Z,98454.02
2018-12-09T09:19:52.408Z,98454.81
2018-12-09T09:20:54.164Z,98453.91
2018-12-09T09:21:55.905Z,98455.31
2018-12-09T09:22:57.665Z,98454.91
2018-12-09T09:24:00.710Z,98452.31
2018-12-09T09:25:02.467Z,98455.00
2018-12-09T09:26:04.220Z,98460.20
2018-12-09T09:27:05.970Z,98457.60
2018-12-09T09:28:07.724Z,98455.00
2018-12-09T09:29:09.495Z,98453.20
2018-12-09T09:30:11.280Z,98462.00
2018-12-09T09:31:13.038Z,98464.09
2018-12-09T09:32:14.786Z,98462.40
2018-12-09T09:33:16.536Z,98463.30
2018-12-09T09:34:18.293Z,98464.59
2018-12-09T09:35:20.081Z,98467.20
2018-12-09T09:36:21.847Z,98472.09
2018-12-09T09:37:23.599Z,98472.48
2018-12-09T09:38:25.351Z,98470.78
2018-12-09T09:39:27.105Z,98469.39
2018-12-09T09:40:30.240Z,98469.89
2018-12-09T09:41:32.009Z,98473.39
2018-12-09T09:42:33.763Z,98473.78
2018-12-09T09:43:35.554Z,98477.59
2018-12-09T09:44:37.300Z,98475.39
2018-12-09T09:45:39.075Z,98474.89
2018-12-09T09:46:40.867Z,98477.48
2018-12-09T09:47:42.673Z,98482.19
2018-12-09T09:48:44.429Z,98484.38
2018-12-09T09:49:46.208Z,98484.48
2018-12-09T09:50:49.775Z,98485.78
2018-12-09T09:51:51.544Z,98479.69
2018-12-09T09:52:53.309Z,98482.19
2018-12-09T09:53:55.069Z,98479.98
2018-12-09T09:54:56.822Z,98481.79
2018-12-09T09:55:58.614Z,98484.38
2018-12-09T09:57:00.387Z,98487.48
2018-12-09T09:58:02.136Z,98489.67
2018-12-09T09:59:04.002Z,98489.67
2018-12-09T10:00:05.890Z,98484.48
2018-12-09T10:01:07.672Z,98491.37
2018-12-09T10:02:09.427Z,98487.88
2018-12-09T10:03:11.722Z,98489.98
2018-12-09T10:04:13.553Z,98498.17
2018-12-09T10:05:15.335Z,98503.88
2018-12-09T10:06:17.121Z,98502.88
2018-12-09T10:07:18.879Z,98504.27
2018-12-09T10:08:20.667Z,98507.67
2018-12-09T10:09:22.438Z,98510.67
2018-12-09T10:10:24.193Z,98502.47
2018-12-09T10:11:25.989Z,98505.47
2018-12-09T10:12:27.779Z,98508.47
2018-12-09T10:13:33.640Z,98496.88
2018-12-09T10:14:35.882Z,98499.87
2018-12-09T10:15:37.647Z,98499.58
2018-12-09T10:16:39.419Z,98493.08
2018-12-09T10:17:41.181Z,98491.68
2018-12-09T10:18:43.013Z,98483.59
2018-12-09T10:19:44.781Z,98486.58
2018-12-09T10:20:46.548Z,98482.69
2018-12-09T10:21:48.345Z,98488.69
2018-12-09T10:22:50.105Z,98490.48
2018-12-09T10:23:52.516Z,98488.28
2018-12-09T10:24:54.312Z,98492.67
2018-12-09T10:25:56.088Z,98490.88
2018-12-09T10:26:57.871Z,98492.58
2018-12-09T10:27:59.635Z,98490.88
2018-12-09T10:29:02.474Z,98491.28
2018-12-09T10:30:04.245Z,98492.67
2018-12-09T10:31:06.013Z,98494.78
2018-12-09T10:32:07.818Z,98496.58
2018-12-09T10:33:09.571Z,98502.27
2018-12-09T10:34:11.345Z,98500.67
2018-12-09T10:35:13.114Z,98512.76
2018-12-09T10:36:14.883Z,98518.76
2018-12-09T10:37:16.691Z,98507.47
2018-12-09T10:38:18.447Z,98505.27
2018-12-09T10:39:20.210Z,98518.66
2018-12-09T10:40:21.985Z,98516.06
2018-12-09T10:41:23.727Z,98522.95
2018-12-09T10:42:25.510Z,98517.27
2018-12-09T10:43:27.286Z,98513.77
2018-12-09T10:44:29.070Z,98528.16
2018-12-09T10:45:30.841Z,98527.25
2018-12-09T10:46:32.587Z,98541.55
2018-12-09T10:47:34.343Z,98531.16
2018-12-09T10:48:36.122Z,98534.25
2018-12-09T10:49:37.856Z,98541.14
2018-12-09T10:50:39.622Z,98538.14
2018-12-09T10:51:41.386Z,98533.34
2018-12-09T10:52:43.161Z,98530.75
2018-12-09T10:53:44.925Z,98538.55
2018-12-09T10:54:46.684Z,98541.14
2018-12-09T10:55:48.442Z,98538.14
2018-12-09T10:56:50.189Z,98536.45
2018-12-09T10:57:51.990Z,98532.95
2018-12-09T10:58:53.753Z,98520.76
2018-12-09T10:59:55.515Z,98526.36
2018-12-09T11:01:02.646Z,98519.95
2018-12-09T11:02:09.895Z,98522.55
2018-12-09T11:03:11.847Z,98527.35
2018-12-09T11:04:13.735Z,98521.76
2018-12-09T11:05:15.497Z,98521.76
2018-12-09T11:06:17.381Z,98517.66
2018-12-09T11:07:19.150Z,98535.34
2018-12-09T11:08:20.930Z,98530.55
2018-12-09T11:09:22.695Z,98540.44
2018-12-09T11:10:24.458Z,98537.34
2018-12-09T11:11:26.209Z,98532.55
2018-12-09T11:12:28.129Z,98537.34
2018-12-09T11:13:29.913Z,98542.94
2018-12-09T11:14:31.660Z,98536.45
2018-12-09T11:15:34.437Z,98534.75
2018-12-09T11:16:36.211Z,98538.24
2018-12-09T11:17:38.004Z,98541.84
2018-12-09T11:18:39.800Z,98538.44
2018-12-09T11:19:41.943Z,98539.34
2018-12-09T11:20:44.891Z,98533.08
2018-12-09T11:21:46.649Z,98535.27
2018-12-09T11:22:48.406Z,98534.97
2018-12-09T11:23:50.169Z,98539.77
2018-12-09T11:24:51.936Z,98533.87
2018-12-09T11:25:53.699Z,98536.47
2018-12-09T11:26:55.513Z,98540.06
2018-12-09T11:27:57.277Z,98538.77
2018-12-09T11:29:01.041Z,98539.30
2018-12-09T11:30:02.841Z,98537.29
2018-12-09T11:31:04.594Z,98541.33
2018-12-09T11:32:06.364Z,98539.52
2018-12-09T11:33:08.116Z,98539.72
2018-12-09T11:34:09.914Z,98544.82
2018-12-09T11:35:11.675Z,98541.52
2018-12-09T11:36:13.438Z,98539.32
2018-12-09T11:37:15.194Z,98539.72
2018-12-09T11:38:17.027Z,98541.92
2018-12-09T11:39:18.801Z,98540.62
2018-12-09T11:40:20.567Z,98546.62
2018-12-09T11:41:22.351Z,98546.13
2018-12-09T11:42:24.134Z,98557.72
2018-12-09T11:43:26.474Z,98556.02
2018-12-09T11:44:28.315Z,98559.11
2018-12-09T11:45:30.081Z,98557.41
2018-12-09T11:46:31.848Z,98565.61
2018-12-09T11:47:34.555Z,98567.31
2018-12-09T11:48:36.323Z,98561.98
2018-12-09T11:49:38.224Z,98567.98
2018-12-09T11:50:39.979Z,98569.68
2018-12-09T11:51:41.792Z,98566.18
2018-12-09T11:52:43.610Z,98566.95
2018-12-09T11:53:45.370Z,98563.05
2018-12-09T11:54:47.156Z,98561.75
2018-12-09T11:55:48.990Z,98551.76
2018-12-09T11:56:50.739Z,98561.38
2018-12-09T11:57:52.505Z,98560.45
2018-12-09T11:58:54.273Z,98559.69
2018-12-09T11:59:56.038Z,98563.59
2018-12-09T12:00:57.789Z,98569.18
2018-12-09T12:01:59.580Z,98569.28
2018-12-09T12:03:01.337Z,98569.68
2018-12-09T12:04:03.118Z,98566.18
2018-12-09T12:05:04.913Z,98566.58
2018-12-09T12:06:06.669Z,98568.87
2018-12-09T12:07:09.132Z,98566.68
2018-12-09T12:08:10.944Z,98571.48